createdAt,value
2023-03-21T00:00:12.127Z,9.43
2023-03-21T00:01:12.049Z,9.43
2023-03-21T00:02:12.035Z,9.37
2023-03-21T00:03:11.878Z,9.42
2023-03-21T00:04:12.010Z,9.35
2023-03-21T00:05:15.835Z,9.38
2023-03-21T00:06:11.649Z,9.37
2023-03-21T00:07:11.553Z,9.34
2023-03-21T00:08:11.577Z,9.34
2023-03-21T00:09:11.388Z,9.42
2023-03-21T00:10:16.589Z,9.35
2023-03-21T00:11:11.232Z,9.42
2023-03-21T00:12:11.165Z,9.34
2023-03-21T00:13:11.061Z,9.37
2023-03-21T00:14:10.980Z,9.34
2023-03-21T00:15:10.897Z,9.43
2023-03-21T00:16:16.783Z,9.43
2023-03-21T00:17:10.736Z,9.43
2023-03-21T00:18:10.699Z,9.38
2023-03-21T00:19:10.568Z,9.40
2023-03-21T00:20:10.487Z,9.37
2023-03-21T00:21:38.456Z,9.32
2023-03-21T00:22:10.354Z,9.37
2023-03-21T00:23:10.240Z,9.37
2023-03-21T00:24:10.158Z,9.32
2023-03-21T00:25:10.128Z,9.32
2023-03-21T00:26:10.015Z,9.34
2023-03-21T00:27:38.394Z,9.17
2023-03-21T00:28:09.841Z,9.31
2023-03-21T00:29:09.758Z,9.24
2023-03-21T00:30:09.668Z,9.24
2023-03-21T00:31:09.594Z,9.24
2023-03-21T00:32:09.507Z,9.34
2023-03-21T00:33:22.082Z,9.27
2023-03-21T00:35:47.986Z,9.17
2023-03-21T00:36:09.477Z,9.24
2023-03-21T00:37:09.178Z,9.17
2023-03-21T00:38:09.011Z,9.17
2023-03-21T00:39:08.929Z,9.13
2023-03-21T00:40:16.241Z,9.12
2023-03-21T00:41:20.965Z,9.14
2023-03-21T00:42:08.702Z,9.17
2023-03-21T00:43:08.603Z,9.12
2023-03-21T00:44:08.520Z,9.10
2023-03-21T00:45:08.436Z,9.09
2023-03-21T00:46:08.354Z,9.10
2023-03-21T00:47:08.364Z,9.13
2023-03-21T00:48:08.256Z,9.13
2023-03-21T00:49:08.109Z,9.03
2023-03-21T00:50:08.028Z,9.16
2023-03-21T00:51:07.992Z,9.09
2023-03-21T00:52:18.361Z,9.17
2023-03-21T00:53:07.782Z,9.19
2023-03-21T00:54:07.716Z,9.12
2023-03-21T00:55:07.619Z,9.12
2023-03-21T00:56:07.781Z,9.17
2023-03-21T00:57:07.454Z,9.10
2023-03-21T00:58:07.411Z,9.14
2023-03-21T00:59:07.290Z,9.13
2023-03-21T01:00:07.202Z,9.17
2023-03-21T01:01:07.342Z,9.12
2023-03-21T01:02:07.367Z,9.12
2023-03-21T01:03:21.467Z,9.10
2023-03-21T01:04:06.877Z,9.10
2023-03-21T01:05:06.794Z,9.06
2023-03-21T01:06:06.715Z,9.14
2023-03-21T01:07:06.634Z,9.10
2023-03-21T01:08:20.580Z,9.00
2023-03-21T01:09:06.471Z,9.00
2023-03-21T01:10:06.389Z,8.98
2023-03-21T01:11:06.302Z,9.05
2023-03-21T01:12:06.229Z,9.05
2023-03-21T01:13:06.137Z,9.06
2023-03-21T01:14:21.390Z,9.00
2023-03-21T01:15:05.973Z,8.87
2023-03-21T01:16:05.939Z,8.94
2023-03-21T01:17:05.808Z,8.90
2023-03-21T01:18:05.728Z,8.90
2023-03-21T01:19:09.343Z,9.03
2023-03-21T01:20:05.560Z,8.88
2023-03-21T01:21:05.478Z,9.00
2023-03-21T01:22:05.398Z,8.97
2023-03-21T01:23:05.314Z,8.94
2023-03-21T01:24:05.230Z,9.00
2023-03-21T01:25:21.079Z,9.02
2023-03-21T01:26:05.067Z,9.00
2023-03-21T01:27:04.987Z,9.00
2023-03-21T01:28:04.902Z,9.03
2023-03-21T01:29:04.821Z,9.02
2023-03-21T01:30:11.220Z,9.03
2023-03-21T01:31:04.657Z,9.03
2023-03-21T01:32:04.582Z,9.06
2023-03-21T01:33:04.494Z,9.00
2023-03-21T01:34:04.410Z,9.05
2023-03-21T01:35:04.328Z,9.10
2023-03-21T01:36:12.636Z,9.16
2023-03-21T01:37:04.163Z,9.05
2023-03-21T01:38:04.081Z,9.10
2023-03-21T01:39:04.002Z,9.05
2023-03-21T01:40:03.917Z,9.12
2023-03-21T01:41:08.693Z,9.03
2023-03-21T01:42:03.756Z,8.95
2023-03-21T01:43:03.673Z,9.03
2023-03-21T01:44:03.589Z,8.93
2023-03-21T01:45:03.521Z,8.95
2023-03-21T01:46:03.482Z,8.90
2023-03-21T01:47:11.132Z,8.93
2023-03-21T01:48:03.298Z,8.93
2023-03-21T01:49:03.182Z,8.84
2023-03-21T01:50:03.097Z,8.88
2023-03-21T01:51:03.012Z,8.79
2023-03-21T01:52:11.504Z,8.79
2023-03-21T01:53:03.150Z,8.76
2023-03-21T01:54:02.768Z,8.68
2023-03-21T01:55:02.682Z,8.65
2023-03-21T01:56:02.600Z,8.58
2023-03-21T01:57:02.519Z,8.57
2023-03-21T01:58:07.309Z,8.44
2023-03-21T01:59:02.354Z,8.48
2023-03-21T02:00:02.270Z,8.36
2023-03-21T02:01:02.222Z,8.40
2023-03-21T02:02:02.128Z,8.40
2023-03-21T02:03:11.532Z,8.32
2023-03-21T02:04:02.074Z,8.36
2023-03-21T02:05:01.858Z,8.25
2023-03-21T02:06:01.780Z,8.25
2023-03-21T02:38:41.226Z,7.59
2023-03-21T02:39:40.725Z,7.73
2023-03-21T02:40:40.642Z,7.59
2023-03-21T02:41:40.801Z,7.59
2023-03-21T02:42:42.051Z,7.57
2023-03-21T02:43:40.403Z,7.63
2023-03-21T02:44:40.307Z,7.57
2023-03-21T02:45:40.265Z,7.56
2023-03-21T02:46:45.369Z,7.67
2023-03-21T02:47:40.172Z,7.56
2023-03-21T02:48:50.107Z,7.59
2023-03-21T02:49:39.889Z,7.56
2023-03-21T02:50:40.015Z,7.57
2023-03-21T02:51:39.722Z,7.53
2023-03-21T02:52:39.977Z,7.48
2023-03-21T02:53:39.646Z,7.48
2023-03-21T02:54:47.929Z,7.34
2023-03-21T02:55:39.392Z,7.37
2023-03-21T02:56:39.307Z,7.37
2023-03-21T02:57:43.158Z,7.35
2023-03-21T02:58:39.142Z,7.20
2023-03-21T02:59:44.500Z,7.24
2023-03-21T03:00:39.362Z,7.20
2023-03-21T03:01:38.967Z,7.24
2023-03-21T03:02:38.806Z,7.30
2023-03-21T03:03:38.727Z,7.26
2023-03-21T03:04:38.688Z,7.30
2023-03-21T03:05:38.555Z,7.34
2023-03-21T03:06:38.477Z,7.30
2023-03-21T03:07:38.389Z,7.23
2023-03-21T03:08:45.287Z,7.29
2023-03-21T03:09:38.521Z,7.30
2023-03-21T03:10:38.445Z,7.35
2023-03-21T03:11:38.053Z,7.39
2023-03-21T03:12:37.989Z,7.34
2023-03-21T03:13:37.886Z,7.35
2023-03-21T03:14:49.842Z,7.39
2023-03-21T03:15:37.854Z,7.37
2023-03-21T03:16:37.637Z,7.38
2023-03-21T03:17:37.545Z,7.42
2023-03-21T03:18:37.483Z,7.44
2023-03-21T03:19:48.128Z,7.34
2023-03-21T03:20:37.653Z,7.37
2023-03-21T03:21:37.214Z,7.37
2023-03-21T03:22:37.137Z,7.27
2023-03-21T03:23:37.057Z,7.31
2023-03-21T03:24:36.969Z,7.39
2023-03-21T03:25:42.961Z,7.41
2023-03-21T03:26:36.813Z,7.38
2023-03-21T03:27:36.720Z,7.35
2023-03-21T03:28:36.825Z,7.37
2023-03-21T03:29:36.542Z,7.29
2023-03-21T03:30:51.086Z,7.34
2023-03-21T03:31:36.425Z,7.37
2023-03-21T03:32:36.290Z,7.38
2023-03-21T03:33:36.214Z,7.37
2023-03-21T03:34:36.126Z,7.45
2023-03-21T03:35:36.076Z,7.44
2023-03-21T03:36:36.020Z,7.44
2023-03-21T03:37:35.870Z,7.47
2023-03-21T03:38:35.784Z,7.52
2023-03-21T03:39:35.704Z,7.53
2023-03-21T03:40:35.984Z,7.52
2023-03-21T03:42:00.888Z,7.56
2023-03-21T03:42:35.471Z,7.52
2023-03-21T03:43:35.365Z,7.48
2023-03-21T04:19:18.102Z,7.11
2023-03-21T04:20:30.016Z,7.08
2023-03-21T04:21:17.916Z,7.01
2023-03-21T04:22:18.165Z,7.05
2023-03-21T04:23:17.781Z,6.98
2023-03-21T04:24:20.487Z,7.12
2023-03-21T04:25:30.725Z,7.12
2023-03-21T04:26:17.494Z,7.13
2023-03-21T04:27:17.416Z,7.19
2023-03-21T04:28:17.325Z,7.17
2023-03-21T04:29:17.241Z,7.26
2023-03-21T04:30:17.173Z,7.23
2023-03-21T04:31:25.699Z,7.23
2023-03-21T04:32:17.111Z,7.23
2023-03-21T04:33:16.913Z,7.37
2023-03-21T04:34:16.822Z,7.31
2023-03-21T04:35:16.770Z,7.44
2023-03-21T04:36:16.900Z,7.39
2023-03-21T04:37:16.567Z,7.48
2023-03-21T04:38:16.486Z,7.55
2023-03-21T04:39:16.397Z,7.53
2023-03-21T04:40:16.315Z,7.59
2023-03-21T04:41:16.229Z,7.59
2023-03-21T04:42:16.172Z,7.67
2023-03-21T04:43:16.061Z,7.62
2023-03-21T04:44:16.079Z,7.68
2023-03-21T04:45:15.902Z,7.72
2023-03-21T04:46:15.927Z,7.73
2023-03-21T04:47:15.727Z,7.72
2023-03-21T04:48:15.710Z,7.75
2023-03-21T04:49:15.565Z,7.78
2023-03-21T04:50:15.485Z,7.75
2023-03-21T04:51:15.659Z,7.70
2023-03-21T04:52:15.307Z,7.78
2023-03-21T04:53:15.225Z,7.88
2023-03-21T04:54:15.140Z,7.88
2023-03-21T04:55:15.356Z,7.88
2023-03-21T04:56:14.974Z,7.86
2023-03-21T04:57:14.892Z,7.93
2023-03-21T04:58:14.806Z,7.88
2023-03-21T04:59:14.718Z,7.97
2023-03-21T05:00:14.640Z,7.90
2023-03-21T05:01:14.731Z,7.88
2023-03-21T05:02:14.472Z,7.83
2023-03-21T05:03:14.383Z,7.90
2023-03-21T05:04:14.861Z,7.88
2023-03-21T05:05:14.234Z,7.83
2023-03-21T05:06:14.137Z,7.85
2023-03-21T05:07:14.069Z,7.83
2023-03-21T05:08:13.968Z,7.70
2023-03-21T05:09:13.886Z,7.86
2023-03-21T05:10:13.800Z,7.78
2023-03-21T05:11:13.715Z,7.86
2023-03-21T05:12:13.632Z,7.73
2023-03-21T05:13:13.546Z,7.81
2023-03-21T05:14:13.473Z,7.73
2023-03-21T05:15:13.381Z,7.75
2023-03-21T05:16:13.417Z,7.68
2023-03-21T05:17:13.248Z,7.70
2023-03-21T05:18:13.151Z,7.73
2023-03-21T05:19:13.048Z,7.68
2023-03-21T05:20:12.964Z,7.64
2023-03-21T05:21:12.917Z,7.67
2023-03-21T05:22:12.797Z,7.57
2023-03-21T05:23:12.732Z,7.56
2023-03-21T05:24:12.628Z,7.34
2023-03-21T05:25:12.557Z,7.48
2023-03-21T05:26:54.942Z,7.37
2023-03-21T05:27:54.874Z,7.34
2023-03-21T05:28:54.777Z,7.35
2023-03-21T05:29:54.692Z,7.27
2023-03-21T05:30:54.625Z,7.30
2023-03-21T05:31:54.524Z,7.24
2023-03-21T05:32:54.439Z,7.34
2023-03-21T05:33:54.354Z,7.34
2023-03-21T05:34:54.473Z,7.35
2023-03-21T05:35:54.284Z,7.27
2023-03-21T05:36:54.138Z,7.27
2023-03-21T05:37:54.028Z,7.24
2023-03-21T05:38:53.955Z,7.23
2023-03-21T05:39:53.853Z,7.29
2023-03-21T05:40:53.774Z,7.30
2023-03-21T05:41:53.689Z,7.29
2023-03-21T05:42:53.601Z,7.30
2023-03-21T05:43:53.523Z,7.30
2023-03-21T05:44:53.433Z,7.39
2023-03-21T05:45:53.408Z,7.45
2023-03-21T05:46:53.267Z,7.49
2023-03-21T05:47:53.211Z,7.56
2023-03-21T05:48:53.101Z,7.56
2023-03-21T05:49:53.015Z,7.55
2023-03-21T05:50:52.933Z,7.53
2023-03-21T05:51:53.203Z,7.57
2023-03-21T05:52:52.766Z,7.57
2023-03-21T05:53:52.687Z,7.60
2023-03-21T05:54:52.767Z,7.52
2023-03-21T05:55:52.539Z,7.53
2023-03-21T05:56:52.432Z,7.60
2023-03-21T05:57:52.434Z,7.70
2023-03-21T05:58:52.266Z,7.72
2023-03-21T05:59:52.181Z,7.73
2023-03-21T06:00:52.155Z,7.76
2023-03-21T06:01:52.048Z,7.72
2023-03-21T06:02:52.026Z,7.75
2023-03-21T06:05:52.226Z,7.99
2023-03-21T06:06:52.035Z,7.99
2023-03-21T06:07:51.958Z,8.11
2023-03-21T06:08:51.869Z,8.18
2023-03-21T06:10:38.858Z,8.18
2023-03-21T06:11:39.246Z,8.30
2023-03-21T06:12:38.668Z,8.34
2023-03-21T06:13:38.581Z,8.27
2023-03-21T06:14:38.495Z,8.39
2023-03-21T06:15:38.769Z,8.39
2023-03-21T06:16:38.333Z,8.51
2023-03-21T06:17:38.250Z,8.55
2023-03-21T06:18:38.220Z,8.54
2023-03-21T06:19:38.082Z,8.65
2023-03-21T06:20:38.235Z,8.66
2023-03-21T06:26:37.541Z,8.90
2023-03-21T06:27:37.422Z,8.84
2023-03-21T06:29:37.494Z,8.90
2023-03-21T06:31:37.379Z,8.90
2023-03-21T06:32:37.045Z,8.94
2023-03-21T06:33:37.274Z,8.94
2023-03-21T06:34:39.038Z,9.05
2023-03-21T06:35:37.190Z,9.05
2023-03-21T06:36:36.768Z,9.09
2023-03-21T06:37:36.852Z,9.12
2023-03-21T06:38:36.556Z,9.12
2023-03-21T06:39:36.430Z,9.17
2023-03-21T06:40:36.385Z,9.16
2023-03-21T06:41:36.281Z,9.27
2023-03-21T06:42:36.240Z,9.28
2023-03-21T06:49:35.647Z,9.72
2023-03-21T06:50:35.552Z,9.74
2023-03-21T06:51:35.451Z,9.70
2023-03-21T06:52:35.365Z,9.90
2023-03-21T06:53:36.168Z,10.03
2023-03-21T06:54:35.641Z,10.21
2023-03-21T06:55:36.648Z,10.29
2023-03-21T06:57:35.000Z,10.37
2023-03-21T06:58:34.914Z,10.46
2023-03-21T07:00:34.799Z,10.55
2023-03-21T07:01:35.076Z,10.74
2023-03-21T07:11:33.829Z,11.29
2023-03-21T07:12:33.743Z,11.34
2023-03-21T07:13:33.663Z,11.38
2023-03-21T07:14:33.601Z,11.51
2023-03-21T07:15:33.501Z,11.54
2023-03-21T07:16:33.439Z,11.51
2023-03-21T07:17:33.343Z,11.57
2023-03-21T07:18:33.263Z,11.67
2023-03-21T07:19:33.197Z,11.76
2023-03-21T07:20:33.101Z,11.79
2023-03-21T07:21:33.256Z,11.78
2023-03-21T07:22:32.979Z,11.81
2023-03-21T07:23:32.896Z,11.79
2023-03-21T07:46:20.197Z,12.61
2023-03-21T07:48:19.334Z,12.66
2023-03-21T07:49:19.152Z,12.70
2023-03-21T07:50:19.074Z,12.56
2023-03-21T07:51:19.244Z,12.63
2023-03-21T07:52:18.917Z,12.63
2023-03-21T07:53:18.851Z,12.71
2023-03-21T07:54:18.755Z,12.74
2023-03-21T07:55:18.689Z,12.82
2023-03-21T07:56:18.907Z,12.84
2023-03-21T07:57:18.520Z,12.81
2023-03-21T07:58:18.454Z,12.91
2023-03-21T07:59:18.361Z,13.03
2023-03-21T08:00:18.586Z,13.15
2023-03-21T08:01:18.203Z,13.18
2023-03-21T08:02:18.202Z,13.09
2023-03-21T08:03:18.099Z,13.00
2023-03-21T08:04:17.968Z,12.99
2023-03-21T08:05:17.889Z,12.86
2023-03-21T08:06:17.815Z,13.02
2023-03-21T08:19:16.813Z,12.89
2023-03-21T08:20:16.716Z,13.03
2023-03-21T08:21:16.842Z,13.10
2023-03-21T08:22:16.555Z,13.04
2023-03-21T08:23:16.482Z,13.00
2023-03-21T08:24:16.397Z,12.91
2023-03-21T08:25:16.565Z,13.03
2023-03-21T08:26:16.236Z,13.02
2023-03-21T08:27:16.162Z,13.03
2023-03-21T08:28:16.081Z,12.85
2023-03-21T08:29:16.001Z,12.82
2023-03-21T08:30:15.923Z,12.88
2023-03-21T08:31:15.888Z,12.89
2023-03-21T08:32:15.767Z,12.77
2023-03-21T08:33:15.884Z,12.77
2023-03-21T08:34:15.618Z,12.86
2023-03-21T08:35:15.545Z,12.69
2023-03-21T08:36:15.695Z,12.73
2023-03-21T08:37:15.368Z,12.78
2023-03-21T08:38:15.290Z,12.79
2023-03-21T08:39:15.208Z,12.86
2023-03-21T08:40:15.138Z,12.79
2023-03-21T08:41:15.052Z,12.85
2023-03-21T08:42:14.974Z,12.99
2023-03-21T08:43:15.123Z,13.06
2023-03-21T08:44:14.819Z,13.11
2023-03-21T08:45:14.739Z,13.14
2023-03-21T08:46:14.746Z,13.02
2023-03-21T08:47:14.576Z,13.06
2023-03-21T08:48:14.525Z,12.91
2023-03-21T08:49:14.421Z,12.88
2023-03-21T08:50:14.373Z,13.09
2023-03-21T08:51:14.314Z,13.17
2023-03-21T08:52:14.184Z,13.43
2023-03-21T08:53:14.101Z,13.62
2023-03-21T08:54:14.025Z,13.77
2023-03-21T08:55:13.944Z,13.86
2023-03-21T08:56:14.267Z,13.99
2023-03-21T08:57:13.791Z,14.03
2023-03-21T08:58:13.711Z,14.13
2023-03-21T08:59:13.632Z,13.91
2023-03-21T09:00:13.555Z,13.96
2023-03-21T09:01:13.476Z,14.13
2023-03-21T09:02:13.399Z,14.20
2023-03-21T09:03:13.321Z,14.28
2023-03-21T09:04:13.274Z,14.38
2023-03-21T09:06:13.083Z,14.47
2023-03-21T09:07:13.028Z,14.59
2023-03-21T09:08:12.932Z,14.53
2023-03-21T09:09:12.855Z,14.53
2023-03-21T09:10:20.616Z,14.42
2023-03-21T09:11:12.903Z,14.46
2023-03-21T09:12:12.619Z,14.35
2023-03-21T09:13:12.545Z,14.27
2023-03-21T09:14:12.463Z,14.31
2023-03-21T09:15:12.399Z,14.10
2023-03-21T09:16:12.353Z,14.21
2023-03-21T09:17:12.491Z,14.27
2023-03-21T09:18:12.153Z,14.23
2023-03-21T09:19:12.136Z,14.13
2023-03-21T09:20:12.002Z,13.96
2023-03-21T09:21:11.924Z,14.09
2023-03-21T09:22:11.845Z,14.11
2023-03-21T09:23:11.790Z,14.10
2023-03-21T09:24:11.691Z,14.21
2023-03-21T09:25:11.648Z,14.20
2023-03-21T09:26:11.536Z,14.35
2023-03-21T09:27:11.462Z,14.49
2023-03-21T09:28:11.382Z,14.34
2023-03-21T09:29:11.306Z,14.36
2023-03-21T09:30:11.234Z,14.20
2023-03-21T09:31:11.244Z,14.21
2023-03-21T09:32:11.080Z,14.11
2023-03-21T09:33:10.997Z,13.99
2023-03-21T09:34:10.914Z,13.98
2023-03-21T09:35:10.841Z,14.01
2023-03-21T09:36:11.017Z,14.03
2023-03-21T09:37:10.687Z,14.14
2023-03-21T09:38:10.609Z,14.21
2023-03-21T09:39:10.549Z,14.20
2023-03-21T09:40:10.452Z,14.17
2023-03-21T09:41:10.376Z,14.14
2023-03-21T09:42:10.309Z,14.10
2023-03-21T09:43:10.219Z,14.10
2023-03-21T09:44:10.147Z,13.92
2023-03-21T09:45:10.077Z,13.94
2023-03-21T09:46:09.990Z,13.95
2023-03-21T09:47:09.911Z,13.99
2023-03-21T09:48:09.979Z,13.98
2023-03-21T09:49:09.791Z,14.03
2023-03-21T09:50:14.662Z,14.01
2023-03-21T09:51:09.603Z,14.03
2023-03-21T09:52:09.525Z,13.96
2023-03-21T09:53:09.445Z,14.01
2023-03-21T09:54:09.367Z,13.83
2023-03-21T09:55:09.310Z,13.96
2023-03-21T09:56:09.211Z,14.05
2023-03-21T09:57:09.142Z,14.01
2023-03-21T09:58:09.063Z,14.10
2023-03-21T09:59:08.986Z,14.14
2023-03-21T10:00:08.903Z,14.19
2023-03-21T10:01:08.963Z,14.11
2023-03-21T10:02:08.798Z,14.14
2023-03-21T10:03:08.669Z,14.13
2023-03-21T10:04:08.681Z,14.05
2023-03-21T10:05:08.515Z,14.11
2023-03-21T10:06:08.510Z,14.21
2023-03-21T10:07:08.358Z,14.23
2023-03-21T10:08:08.279Z,14.34
2023-03-21T10:09:08.217Z,14.27
2023-03-21T10:10:08.154Z,14.27
2023-03-21T10:11:08.068Z,14.36
2023-03-21T10:12:07.972Z,14.35
2023-03-21T10:13:07.900Z,14.34
2023-03-21T10:14:07.827Z,14.35
2023-03-21T10:15:07.739Z,14.28
2023-03-21T10:16:07.824Z,14.32
2023-03-21T10:17:07.885Z,14.36
2023-03-21T10:18:07.517Z,14.36
2023-03-21T10:19:07.429Z,14.41
2023-03-21T10:20:07.904Z,14.39
2023-03-21T10:21:07.273Z,14.47
2023-03-21T10:22:07.193Z,14.50
2023-03-21T10:23:07.117Z,14.53
2023-03-21T10:24:07.040Z,14.46
2023-03-21T10:25:06.969Z,14.38
2023-03-21T10:26:06.883Z,14.35
2023-03-21T10:27:06.836Z,14.34
2023-03-21T10:28:06.731Z,14.35
2023-03-21T10:29:06.765Z,14.28
2023-03-21T10:30:06.824Z,14.23
2023-03-21T10:31:06.696Z,14.23
2023-03-21T10:32:06.444Z,14.07
2023-03-21T10:33:06.376Z,14.13
2023-03-21T10:34:06.264Z,13.95
2023-03-21T10:35:06.888Z,13.95
2023-03-21T10:36:06.130Z,13.99
2023-03-21T10:37:06.041Z,14.03
2023-03-21T10:38:05.963Z,14.13
2023-03-21T10:39:05.884Z,14.17
2023-03-21T10:40:05.799Z,14.24
2023-03-21T10:41:05.723Z,14.16
2023-03-21T10:42:05.644Z,14.23
2023-03-21T10:43:05.710Z,14.38
2023-03-21T10:44:05.490Z,14.41
2023-03-21T10:45:05.414Z,14.34
2023-03-21T10:46:05.434Z,14.31
2023-03-21T10:47:05.412Z,14.35
2023-03-21T10:48:05.502Z,14.27
2023-03-21T10:49:05.199Z,14.21
2023-03-21T10:50:08.138Z,14.28
2023-03-21T10:51:04.945Z,14.32
2023-03-21T10:52:04.870Z,14.35
2023-03-21T10:53:04.796Z,14.50
2023-03-21T10:54:04.711Z,14.54
2023-03-21T10:55:04.638Z,14.56
2023-03-21T10:56:04.560Z,14.69
2023-03-21T10:57:04.517Z,14.75
2023-03-21T10:58:04.412Z,14.84
2023-03-21T10:59:04.354Z,14.85
2023-03-21T11:00:04.251Z,14.80
2023-03-21T11:01:04.188Z,14.71
2023-03-21T11:02:04.162Z,14.59
2023-03-21T11:03:04.023Z,14.57
2023-03-21T11:04:04.154Z,14.34
2023-03-21T11:05:03.866Z,14.35
2023-03-21T11:06:03.788Z,14.41
2023-03-21T11:07:03.709Z,14.36
2023-03-21T11:08:03.633Z,14.44
2023-03-21T11:09:03.565Z,14.46
2023-03-21T11:10:03.477Z,14.64
2023-03-21T11:11:03.404Z,14.74
2023-03-21T11:12:03.329Z,14.72
2023-03-21T11:13:03.350Z,14.80
2023-03-21T11:14:03.173Z,14.80
2023-03-21T11:15:03.116Z,14.93
2023-03-21T11:16:03.018Z,14.74
2023-03-21T11:17:03.023Z,14.39
2023-03-21T11:18:02.864Z,14.29
2023-03-21T11:19:02.790Z,14.21
2023-03-21T11:20:02.716Z,14.19
2023-03-21T11:21:02.640Z,14.23
2023-03-21T11:22:02.560Z,14.34
2023-03-21T11:23:02.491Z,14.34
2023-03-21T11:24:02.425Z,14.35
2023-03-21T11:25:02.329Z,14.35
2023-03-21T11:26:02.656Z,14.35
2023-03-21T11:27:02.183Z,14.31
2023-03-21T11:28:02.098Z,14.13
2023-03-21T11:29:02.022Z,14.05
2023-03-21T11:30:01.952Z,14.10
2023-03-21T11:31:01.953Z,14.16
2023-03-21T11:32:01.791Z,14.14
2023-03-21T11:33:01.739Z,14.11
2023-03-21T11:34:01.638Z,14.17
2023-03-21T11:35:01.960Z,14.17
2023-03-21T11:36:01.819Z,14.20
2023-03-21T11:37:01.416Z,14.07
2023-03-21T11:38:01.327Z,13.99
2023-03-21T11:39:01.263Z,13.99
2023-03-21T11:40:01.180Z,14.03
2023-03-21T11:41:01.109Z,14.13
2023-03-21T11:42:01.041Z,14.13
2023-03-21T11:43:00.961Z,14.16
2023-03-21T11:44:00.877Z,14.10
2023-03-21T11:45:00.796Z,14.13
2023-03-21T11:46:00.758Z,14.11
2023-03-21T11:47:00.655Z,14.07
2023-03-21T11:48:00.638Z,14.09
2023-03-21T11:49:00.481Z,13.98
2023-03-21T11:50:05.113Z,14.05
2023-03-21T11:51:00.324Z,14.14
2023-03-21T11:52:00.393Z,14.17
2023-03-21T11:53:00.168Z,14.10
2023-03-21T11:54:00.124Z,14.07
2023-03-21T11:55:00.013Z,14.09
2023-03-21T11:55:59.936Z,14.01
2023-03-21T11:56:59.858Z,14.03
2023-03-21T11:58:02.743Z,13.92
2023-03-21T11:58:59.761Z,13.99
2023-03-21T11:59:59.624Z,14.07
2023-03-21T12:00:59.547Z,14.10
2023-03-21T12:01:59.475Z,13.95
2023-03-21T12:02:59.533Z,13.95
2023-03-21T12:03:59.386Z,13.91
2023-03-21T12:04:59.241Z,13.96
2023-03-21T12:05:59.164Z,13.89
2023-03-21T12:06:59.337Z,13.81
2023-03-21T12:07:59.007Z,13.76
2023-03-21T12:08:58.932Z,13.68
2023-03-21T12:09:58.861Z,13.74
2023-03-21T12:10:58.772Z,13.86
2023-03-21T12:11:58.699Z,13.81
2023-03-21T12:12:58.620Z,13.96
2023-03-21T12:13:58.753Z,13.87
2023-03-21T12:14:58.468Z,13.86
2023-03-21T12:15:58.454Z,13.87
2023-03-21T12:16:58.361Z,13.73
2023-03-21T12:17:58.233Z,13.63
2023-03-21T12:18:58.175Z,13.59
2023-03-21T12:19:58.079Z,13.50
2023-03-21T12:20:58.001Z,13.41
2023-03-21T12:21:57.925Z,13.27
2023-03-21T12:22:58.018Z,13.29
2023-03-21T12:23:57.968Z,13.24
2023-03-21T12:24:57.691Z,13.24
2023-03-21T12:25:57.614Z,13.15
2023-03-21T12:26:59.108Z,13.24
2023-03-21T12:27:57.459Z,13.33
2023-03-21T12:28:57.380Z,13.25
2023-03-21T12:29:57.307Z,13.22
2023-03-21T12:30:57.277Z,13.28
2023-03-21T12:31:57.144Z,13.24
2023-03-21T12:32:57.066Z,13.41
2023-03-21T12:33:56.987Z,13.45
2023-03-21T12:34:57.033Z,13.29
2023-03-21T12:35:57.050Z,13.28
2023-03-21T12:36:56.753Z,13.27
2023-03-21T12:37:57.903Z,13.24
2023-03-21T12:38:56.594Z,13.07
2023-03-21T12:39:56.526Z,12.99
2023-03-21T12:40:56.440Z,13.06
2023-03-21T12:41:56.610Z,13.10
2023-03-21T12:42:56.283Z,13.03
2023-03-21T12:43:56.214Z,13.03
2023-03-21T12:44:56.480Z,13.10
2023-03-21T12:45:56.054Z,13.09
2023-03-21T12:46:56.052Z,13.07
2023-03-21T12:47:55.952Z,13.10
2023-03-21T12:48:55.816Z,13.14
2023-03-21T12:49:55.745Z,13.15
2023-03-21T12:50:55.779Z,13.29
2023-03-21T12:51:55.592Z,13.18
2023-03-21T12:52:55.500Z,13.24
2023-03-21T12:53:55.425Z,13.25
2023-03-21T12:54:55.549Z,13.38
2023-03-21T12:55:55.271Z,13.43
2023-03-21T12:56:55.251Z,13.45
2023-03-21T12:57:57.803Z,13.37
2023-03-21T12:58:55.044Z,13.40
2023-03-21T12:59:54.961Z,13.37
2023-03-21T13:00:54.951Z,13.40
2023-03-21T13:01:54.855Z,13.45
2023-03-21T13:02:54.726Z,13.52
2023-03-21T13:03:54.735Z,13.70
2023-03-21T13:04:54.565Z,13.73
2023-03-21T13:05:54.489Z,13.78
2023-03-21T13:06:54.525Z,13.92
2023-03-21T13:07:54.332Z,13.94
2023-03-21T13:08:54.262Z,13.96
2023-03-21T13:09:54.180Z,14.16
2023-03-21T13:10:54.100Z,14.17
2023-03-21T13:11:54.104Z,14.28
2023-03-21T13:12:53.948Z,14.35
2023-03-21T13:13:53.872Z,14.52
2023-03-21T13:14:53.791Z,14.61
2023-03-21T13:15:53.771Z,14.79
2023-03-21T13:16:53.638Z,14.80
2023-03-21T13:17:53.566Z,14.71
2023-03-21T13:18:53.499Z,14.60
2023-03-21T13:19:53.415Z,14.54
2023-03-21T13:20:53.355Z,14.44
2023-03-21T13:21:53.258Z,14.46
2023-03-21T13:22:53.302Z,14.53
2023-03-21T13:23:53.104Z,14.59
2023-03-21T13:24:53.032Z,14.50
2023-03-21T13:25:52.952Z,14.46
2023-03-21T13:26:52.893Z,14.49
2023-03-21T13:27:52.804Z,14.54
2023-03-21T13:28:52.722Z,14.53
2023-03-21T13:29:52.751Z,14.49
2023-03-21T13:30:52.587Z,14.36
2023-03-21T13:31:53.857Z,14.34
2023-03-21T13:32:52.420Z,14.31
2023-03-21T13:33:52.340Z,14.35
2023-03-21T13:34:52.265Z,14.38
2023-03-21T13:35:52.230Z,14.34
2023-03-21T13:36:52.114Z,14.36
2023-03-21T13:37:52.543Z,14.34
2023-03-21T13:38:52.155Z,14.27
2023-03-21T13:39:51.887Z,14.36
2023-03-21T13:40:51.810Z,14.38
2023-03-21T13:41:51.737Z,14.19
2023-03-21T13:42:51.658Z,13.96
2023-03-21T13:43:51.585Z,13.83
2023-03-21T13:44:51.505Z,13.86
2023-03-21T13:45:51.459Z,13.83
2023-03-21T13:46:54.284Z,13.77
2023-03-21T13:47:51.341Z,13.63
2023-03-21T13:48:58.569Z,13.65
2023-03-21T13:49:51.125Z,13.50
2023-03-21T13:50:51.047Z,13.48
2023-03-21T13:51:50.969Z,13.48
2023-03-21T13:52:51.190Z,13.50
2023-03-21T13:53:50.814Z,13.53
2023-03-21T13:54:50.894Z,13.52
2023-03-21T13:55:51.009Z,13.37
2023-03-21T13:56:50.581Z,13.37
2023-03-21T13:57:50.505Z,13.28
2023-03-21T13:58:50.477Z,13.25
2023-03-21T13:59:50.402Z,13.27
2023-03-21T14:00:50.404Z,13.19
2023-03-21T14:01:50.202Z,13.18
2023-03-21T14:02:50.112Z,13.19
2023-03-21T14:03:50.051Z,13.14
2023-03-21T14:05:04.056Z,13.27
2023-03-21T14:05:49.966Z,13.27
2023-03-21T14:06:49.816Z,13.32
2023-03-21T14:07:50.118Z,13.21
2023-03-21T14:08:49.655Z,13.21
2023-03-21T14:09:49.567Z,13.17
2023-03-21T14:10:49.624Z,13.22
2023-03-21T14:11:49.407Z,13.28
2023-03-21T14:12:49.333Z,13.27
2023-03-21T14:13:51.684Z,13.21
2023-03-21T14:14:49.171Z,13.15
2023-03-21T14:15:55.251Z,13.10
2023-03-21T14:17:49.034Z,13.04
2023-03-21T14:18:54.173Z,13.00
2023-03-21T14:19:48.779Z,13.03
2023-03-21T14:20:48.700Z,13.04
2023-03-21T14:21:48.623Z,12.89
2023-03-21T14:22:48.546Z,13.00
2023-03-21T14:23:48.466Z,12.96
2023-03-21T14:24:48.400Z,13.02
2023-03-21T14:25:48.594Z,13.09
2023-03-21T14:26:48.350Z,13.10
2023-03-21T14:27:48.155Z,13.17
2023-03-21T14:28:48.073Z,13.04
2023-03-21T14:29:47.998Z,13.11
2023-03-21T14:30:47.985Z,13.07
2023-03-21T14:31:47.877Z,13.11
2023-03-21T14:32:47.763Z,13.15
2023-03-21T14:33:47.681Z,13.07
2023-03-21T14:34:47.603Z,13.02
2023-03-21T14:35:47.567Z,13.04
2023-03-21T14:36:55.390Z,13.04
2023-03-21T14:37:47.370Z,13.00
2023-03-21T14:38:47.289Z,12.89
2023-03-21T14:39:47.215Z,12.86
2023-03-21T14:40:47.133Z,12.96
2023-03-21T14:41:47.071Z,12.91
2023-03-21T14:42:47.103Z,12.84
2023-03-21T14:43:46.898Z,12.88
2023-03-21T14:44:54.890Z,12.85
2023-03-21T14:45:46.742Z,12.86
2023-03-21T14:46:46.667Z,12.97
2023-03-21T14:47:46.594Z,13.02
2023-03-21T14:48:46.509Z,12.94
2023-03-21T14:49:46.430Z,12.94
2023-03-21T14:50:46.360Z,13.03
2023-03-21T14:51:46.277Z,13.04
2023-03-21T14:52:46.191Z,13.02
2023-03-21T14:53:46.116Z,13.03
2023-03-21T14:54:46.039Z,13.06
2023-03-21T14:55:46.306Z,13.00
2023-03-21T14:56:45.879Z,12.91
2023-03-21T14:57:45.809Z,12.92
2023-03-21T14:58:45.839Z,12.85
2023-03-21T14:59:45.644Z,12.91
2023-03-21T15:00:45.563Z,12.81
2023-03-21T15:01:45.505Z,12.81
2023-03-21T15:02:45.463Z,12.77
2023-03-21T15:03:45.328Z,12.82
2023-03-21T15:04:45.295Z,12.86
2023-03-21T15:05:45.168Z,12.73
2023-03-21T15:06:45.101Z,12.77
2023-03-21T15:07:45.015Z,12.77
2023-03-21T15:08:44.935Z,12.78
2023-03-21T15:09:44.854Z,12.74
2023-03-21T15:10:45.525Z,12.74
2023-03-21T15:11:44.697Z,12.66
2023-03-21T15:12:44.620Z,12.73
2023-03-21T15:13:44.545Z,12.56